createdAt,value
2023-03-05T00:01:54.948Z,11.38
2023-03-05T00:04:25.330Z,11.55
2023-03-05T00:06:55.741Z,11.68
2023-03-05T00:09:25.197Z,12.60
2023-03-05T00:11:54.747Z,13.13
2023-03-05T00:14:24.072Z,13.38
2023-03-05T00:16:54.328Z,12.10
2023-03-05T00:19:24.030Z,12.75
2023-03-05T00:21:53.223Z,12.83
2023-03-05T00:24:22.329Z,11.73
2023-03-05T00:26:51.412Z,12.05
2023-03-05T00:29:22.936Z,12.90
2023-03-05T00:31:51.716Z,11.02
2023-03-05T00:34:22.439Z,10.38
2023-03-05T00:36:53.922Z,10.25
2023-03-05T00:39:23.199Z,10.45
2023-03-05T00:41:52.433Z,9.87
2023-03-05T00:44:21.555Z,7.57
2023-03-05T00:46:50.482Z,9.82
2023-03-05T00:49:19.617Z,7.67
2023-03-05T00:51:50.212Z,10.02
2023-03-05T00:54:19.565Z,9.32
2023-03-05T00:56:49.277Z,7.90
2023-03-05T00:59:18.323Z,10.70
2023-03-05T01:01:47.102Z,9.32
2023-03-05T01:04:16.190Z,10.57
2023-03-05T01:06:46.334Z,11.15
2023-03-05T01:09:17.598Z,8.63
2023-03-05T01:11:46.647Z,9.82
2023-03-05T01:14:15.753Z,9.50
2023-03-05T01:16:44.473Z,10.23
2023-03-05T01:19:14.700Z,10.45
2023-03-05T01:24:12.813Z,10.38
2023-03-05T01:26:43.267Z,10.77
2023-03-05T01:29:12.331Z,8.95
2023-03-05T01:31:40.963Z,10.95
2023-03-05T01:34:10.146Z,10.43
2023-03-05T01:36:39.207Z,10.35
2023-03-05T01:39:08.256Z,7.85
2023-03-05T01:41:37.354Z,9.63
2023-03-05T01:44:08.599Z,10.48
2023-03-05T01:46:37.659Z,9.10
2023-03-05T01:49:12.428Z,11.30
2023-03-05T01:51:44.994Z,10.30
2023-03-05T01:54:16.229Z,10.40
2023-03-05T01:56:45.769Z,9.52
2023-03-05T01:59:16.891Z,10.20
2023-03-05T02:01:47.480Z,10.40
2023-03-05T02:04:19.112Z,10.63
2023-03-05T02:06:50.114Z,8.88
2023-03-05T02:09:23.405Z,10.20
2023-03-05T02:11:52.777Z,8.90
2023-03-05T02:14:24.447Z,8.07
2023-03-05T02:16:53.452Z,8.10
2023-03-05T02:19:22.598Z,7.17
2023-03-05T02:21:53.132Z,11.13
2023-03-05T02:24:36.039Z,11.18
2023-03-05T02:27:06.589Z,8.85
2023-03-05T02:29:36.905Z,10.50
2023-03-05T02:32:06.705Z,10.30
2023-03-05T02:34:35.369Z,10.55
2023-03-05T02:37:09.195Z,8.15
2023-03-05T02:39:39.837Z,8.77
2023-03-05T02:42:09.335Z,10.20
2023-03-05T02:44:38.893Z,10.68
2023-03-05T02:47:08.428Z,7.97
2023-03-05T02:49:37.470Z,7.75
2023-03-05T02:52:08.727Z,10.18
2023-03-05T02:54:37.821Z,10.02
2023-03-05T02:57:06.876Z,10.43
2023-03-05T02:59:35.929Z,9.18
2023-03-05T03:02:05.058Z,9.18
2023-03-05T03:04:33.679Z,8.90
2023-03-05T03:07:02.687Z,8.82
2023-03-05T03:09:35.227Z,10.45
2023-03-05T03:12:05.116Z,10.38
2023-03-05T03:14:39.144Z,10.07
2023-03-05T03:17:08.349Z,10.95
2023-03-05T03:19:37.210Z,10.32
2023-03-05T03:22:07.116Z,8.50
2023-03-05T03:24:39.282Z,9.80
2023-03-05T03:27:08.468Z,10.73
2023-03-05T03:29:37.586Z,11.38
2023-03-05T03:32:08.434Z,9.50
2023-03-05T03:34:37.312Z,12.18
2023-03-05T03:37:06.530Z,10.45
2023-03-05T03:39:35.743Z,9.07
2023-03-05T03:42:06.782Z,8.57
2023-03-05T03:44:36.008Z,9.20
2023-03-05T03:47:05.389Z,9.73
2023-03-05T03:49:34.132Z,10.63
2023-03-05T03:52:03.331Z,9.45
2023-03-05T03:54:33.323Z,9.03
2023-03-05T03:57:02.359Z,9.57
2023-03-05T03:59:32.971Z,9.23
2023-03-05T04:02:02.072Z,8.45
2023-03-05T04:04:30.782Z,8.55
2023-03-05T04:07:00.785Z,7.90
2023-03-05T04:09:29.812Z,10.80
2023-03-05T04:11:58.856Z,8.05
2023-03-05T04:14:28.214Z,6.32
2023-03-05T04:16:58.307Z,7.30
2023-03-05T04:19:28.504Z,8.32
2023-03-05T04:24:26.255Z,9.10
2023-03-05T04:26:55.693Z,8.25
2023-03-05T04:29:26.223Z,8.15
2023-03-05T04:31:54.929Z,9.33
2023-03-05T04:34:25.599Z,9.80
2023-03-05T04:36:54.633Z,9.07
2023-03-05T04:39:23.634Z,9.23
2023-03-05T04:41:52.779Z,11.18
2023-03-05T04:44:23.438Z,10.57
2023-03-05T04:46:52.215Z,11.10
2023-03-05T04:49:21.362Z,10.15
2023-03-05T04:51:51.940Z,11.68
2023-03-05T04:54:20.978Z,10.45
2023-03-05T04:56:50.051Z,10.23
2023-03-05T04:59:19.174Z,9.63
2023-03-05T05:01:47.938Z,10.80
2023-03-05T05:04:17.122Z,9.53
2023-03-05T05:06:46.260Z,9.20
2023-03-05T05:09:16.881Z,9.85
2023-03-05T05:11:45.910Z,8.75
2023-03-05T05:14:15.473Z,11.10
2023-03-05T05:16:44.199Z,8.68
2023-03-05T05:19:13.513Z,8.88
2023-03-05T05:21:42.669Z,10.27
2023-03-05T05:24:11.789Z,10.38
2023-03-05T05:26:42.542Z,8.00
2023-03-05T05:29:11.693Z,9.68
2023-03-05T05:31:40.424Z,8.45
2023-03-05T05:34:09.647Z,7.68
2023-03-05T05:36:38.714Z,9.73
2023-03-05T05:39:07.848Z,8.10
2023-03-05T05:41:36.954Z,8.40
2023-03-05T05:44:07.495Z,8.95
2023-03-05T05:49:05.911Z,9.05
2023-03-05T05:51:35.099Z,8.05
2023-03-05T05:54:04.336Z,7.60
2023-03-05T05:56:34.922Z,6.97
2023-03-05T05:59:04.004Z,7.90
2023-03-05T06:01:34.572Z,8.13
2023-03-05T06:04:03.817Z,7.68
2023-03-05T06:06:34.169Z,9.70
2023-03-05T06:09:03.269Z,7.82
2023-03-05T06:11:32.397Z,8.63
2023-03-05T06:14:02.746Z,7.90
2023-03-05T06:16:33.410Z,7.53
2023-03-05T06:19:04.621Z,8.20
2023-03-05T06:21:34.082Z,8.60
2023-03-05T06:24:03.709Z,6.93
2023-03-05T06:26:32.794Z,6.47
2023-03-05T06:29:01.907Z,8.05
2023-03-05T06:31:31.163Z,7.97
2023-03-05T06:34:02.609Z,8.07
2023-03-05T06:36:32.193Z,7.60
2023-03-05T06:39:01.535Z,9.75
2023-03-05T06:41:32.584Z,7.10
2023-03-05T06:44:02.533Z,7.45
2023-03-05T06:46:32.430Z,7.55
2023-03-05T06:49:03.905Z,6.97
2023-03-05T06:51:34.789Z,7.65
2023-03-05T06:54:05.944Z,6.32
2023-03-05T06:56:37.138Z,7.20
2023-03-05T06:59:06.793Z,7.40
2023-03-05T07:01:35.597Z,6.75
2023-03-05T07:04:06.951Z,6.50
2023-03-05T07:06:38.814Z,6.82
2023-03-05T07:09:09.013Z,7.40
2023-03-05T07:11:40.284Z,7.45
2023-03-05T07:14:09.474Z,7.35
2023-03-05T07:16:38.095Z,6.43
2023-03-05T07:19:11.005Z,6.20
2023-03-05T07:21:40.441Z,5.68
2023-03-05T07:24:10.229Z,5.63
2023-03-05T07:26:39.446Z,7.18
2023-03-05T07:29:08.462Z,6.88
2023-03-05T07:31:37.406Z,7.13
2023-03-05T07:34:08.341Z,6.53
2023-03-05T07:36:38.244Z,6.95
2023-03-05T07:39:07.427Z,7.05
2023-03-05T07:41:36.886Z,6.38
2023-03-05T07:44:05.960Z,7.33
2023-03-05T07:46:36.143Z,7.22
2023-03-05T07:49:05.762Z,8.23
2023-03-05T07:51:36.486Z,7.10
2023-03-05T07:54:05.856Z,7.32
2023-03-05T07:56:36.461Z,7.17
2023-03-05T07:59:07.101Z,7.00
2023-03-05T08:01:36.390Z,7.50
2023-03-05T08:04:07.122Z,6.95
2023-03-05T08:06:41.252Z,7.38
2023-03-05T08:09:11.413Z,7.57
2023-03-05T08:11:41.466Z,7.45
2023-03-05T08:14:12.127Z,8.40
2023-03-05T08:16:41.315Z,9.27
2023-03-05T08:19:12.586Z,6.88
2023-03-05T08:21:43.249Z,7.68
2023-03-05T08:24:13.010Z,8.32
2023-03-05T08:26:42.481Z,7.65
2023-03-05T08:29:12.094Z,7.78
2023-03-05T08:31:42.104Z,7.60
2023-03-05T08:34:11.207Z,7.72
2023-03-05T08:36:40.296Z,7.38
2023-03-05T08:39:11.177Z,8.30
2023-03-05T08:41:40.685Z,8.70
2023-03-05T08:44:09.904Z,8.35
2023-03-05T08:46:40.453Z,7.78
2023-03-05T08:49:09.725Z,8.30
2023-03-05T08:54:08.722Z,10.25
2023-03-05T08:56:39.346Z,9.82
2023-03-05T08:59:10.753Z,10.30
2023-03-05T09:01:40.163Z,10.15
2023-03-05T09:04:09.327Z,9.95
2023-03-05T09:06:40.595Z,9.77
2023-03-05T09:09:10.093Z,9.88
2023-03-05T09:11:40.480Z,9.70
2023-03-05T09:14:09.896Z,9.75
2023-03-05T09:16:41.062Z,10.05
2023-03-05T09:19:12.422Z,9.88
2023-03-05T09:21:41.608Z,8.90
2023-03-05T09:24:11.869Z,7.88
2023-03-05T09:31:43.482Z,9.93
2023-03-05T09:34:13.557Z,10.43
2023-03-05T09:36:42.650Z,11.25
2023-03-05T09:39:11.726Z,11.55
2023-03-05T09:41:59.270Z,11.40
2023-03-05T09:44:34.938Z,11.75
2023-03-05T09:47:14.769Z,12.25
2023-03-05T09:54:47.110Z,11.38
2023-03-05T09:57:20.202Z,11.70
2023-03-05T09:59:52.372Z,10.93
2023-03-05T10:02:25.086Z,11.95
2023-03-05T10:04:57.006Z,11.40
2023-03-05T10:07:29.124Z,12.48
2023-03-05T10:10:00.899Z,12.50
2023-03-05T10:12:42.357Z,12.77
2023-03-05T10:15:15.245Z,11.35
2023-03-05T10:17:56.446Z,11.80
2023-03-05T10:21:00.318Z,12.60
2023-03-05T10:23:32.222Z,11.98
2023-03-05T10:26:23.724Z,12.82
2023-03-05T10:29:03.874Z,11.52
2023-03-05T10:31:41.601Z,12.45
2023-03-05T10:34:37.902Z,11.15
2023-03-05T10:37:18.473Z,12.15
2023-03-05T10:39:56.636Z,10.82
2023-03-05T10:42:31.337Z,8.98
2023-03-05T10:45:03.522Z,10.40
2023-03-05T10:47:39.138Z,11.45
2023-03-05T10:50:18.163Z,10.02
2023-03-05T10:52:51.949Z,10.27
2023-03-05T10:55:23.727Z,9.80
2023-03-05T10:57:52.906Z,9.88
2023-03-05T11:00:25.183Z,9.63
2023-03-05T11:02:59.508Z,11.05
2023-03-05T11:05:48.283Z,9.40
2023-03-05T11:08:36.184Z,9.55
2023-03-05T11:11:10.523Z,7.00
2023-03-05T11:13:44.516Z,7.15
2023-03-05T11:16:21.159Z,7.22
2023-03-05T11:18:50.556Z,7.90
2023-03-05T11:21:24.044Z,6.43
2023-03-05T11:24:07.433Z,8.52
2023-03-05T11:26:36.650Z,9.63
2023-03-05T11:29:11.010Z,8.38
2023-03-05T11:31:41.205Z,9.65
2023-03-05T11:34:26.128Z,8.95
2023-03-05T11:37:04.550Z,10.40
2023-03-05T11:39:36.846Z,12.30
2023-03-05T11:42:08.018Z,11.38
2023-03-05T11:44:48.740Z,12.80
2023-03-05T11:47:28.429Z,8.40
2023-03-05T11:50:03.853Z,9.40
2023-03-05T11:52:36.468Z,8.32
2023-03-05T11:55:07.844Z,7.53
2023-03-05T11:57:44.172Z,6.10
2023-03-05T12:00:18.219Z,5.93
2023-03-05T12:02:50.698Z,6.40
2023-03-05T12:05:19.985Z,6.40
2023-03-05T12:07:50.963Z,6.45
2023-03-05T12:10:22.141Z,6.22
2023-03-05T12:12:56.579Z,7.45
2023-03-05T12:15:49.309Z,7.53
2023-03-05T12:18:35.462Z,8.48
2023-03-05T12:21:08.656Z,7.93
2023-03-05T12:23:51.880Z,8.60
2023-03-05T12:26:59.294Z,9.18
2023-03-05T12:29:30.478Z,9.50
2023-03-05T12:32:01.110Z,9.05
2023-03-05T12:34:50.623Z,7.72
2023-03-05T12:37:56.289Z,9.23
2023-03-05T12:40:26.519Z,8.23
2023-03-05T12:45:37.249Z,8.00
2023-03-05T12:48:45.115Z,8.27
2023-03-05T12:51:32.888Z,8.15
2023-03-05T12:54:31.572Z,9.65
2023-03-05T12:57:02.295Z,7.45
2023-03-05T12:59:40.743Z,6.93
2023-03-05T13:02:30.555Z,7.45
2023-03-05T13:05:00.987Z,7.73
2023-03-05T13:07:32.074Z,8.05
2023-03-05T13:10:01.735Z,7.75
2023-03-05T13:12:31.819Z,6.88
2023-03-05T13:15:03.475Z,6.90
2023-03-05T13:17:44.540Z,5.55
2023-03-05T13:20:37.735Z,4.97
2023-03-05T13:23:18.366Z,6.70
2023-03-05T13:26:04.407Z,6.60
2023-03-05T13:28:34.590Z,6.35
2023-03-05T13:33:34.729Z,6.20
2023-03-05T13:36:04.606Z,6.60
2023-03-05T13:38:38.388Z,6.03
2023-03-05T13:41:21.064Z,5.50
2023-03-05T13:43:51.903Z,7.28
2023-03-05T13:46:29.937Z,7.65
2023-03-05T13:49:01.023Z,7.10
2023-03-05T13:51:43.640Z,7.45
2023-03-05T13:54:16.811Z,6.80
2023-03-05T13:56:54.073Z,7.57
2023-03-05T13:59:24.402Z,7.07
2023-03-05T14:01:54.132Z,7.47
2023-03-05T14:06:57.042Z,6.45
2023-03-05T14:09:30.360Z,6.80
2023-03-05T14:12:04.482Z,7.90
2023-03-05T14:14:36.791Z,5.88
2023-03-05T14:17:34.358Z,7.32
2023-03-05T14:20:27.568Z,7.15
2023-03-05T14:22:58.170Z,8.45
2023-03-05T14:25:37.812Z,8.45
2023-03-05T14:28:09.524Z,7.03
2023-03-05T14:30:39.089Z,8.25
2023-03-05T14:33:08.363Z,7.88
2023-03-05T14:35:38.314Z,8.90
2023-03-05T14:38:09.796Z,8.15
2023-03-05T14:40:39.963Z,9.18
2023-03-05T14:43:12.437Z,8.75
2023-03-05T14:45:43.636Z,8.45
2023-03-05T14:48:15.161Z,9.05
2023-03-05T14:50:45.411Z,8.45
2023-03-05T14:55:48.896Z,9.33
2023-03-05T14:58:21.766Z,8.80
2023-03-05T15:00:51.462Z,9.40
2023-03-05T15:03:21.825Z,9.27
2023-03-05T15:05:53.016Z,8.80
2023-03-05T15:08:23.983Z,9.82
2023-03-05T15:10:54.486Z,9.82
2023-03-05T15:13:24.073Z,9.27
2023-03-05T15:18:24.066Z,10.23
2023-03-05T15:20:53.690Z,10.65
2023-03-05T15:23:22.758Z,9.65
2023-03-05T15:25:51.656Z,9.82
2023-03-05T15:28:22.293Z,8.05
2023-03-05T15:30:51.882Z,10.65
2023-03-05T15:33:22.272Z,8.30
2023-03-05T15:35:51.638Z,9.85
2023-03-05T15:38:21.185Z,10.70
2023-03-05T15:40:50.412Z,11.30
2023-03-05T15:43:19.889Z,9.40
2023-03-05T15:45:50.505Z,10.77
2023-03-05T15:48:19.665Z,10.85
2023-03-05T15:50:48.765Z,11.25
2023-03-05T15:53:18.131Z,11.63
2023-03-05T15:55:47.229Z,10.73
2023-03-05T15:58:17.669Z,12.00
2023-03-05T16:00:47.653Z,10.68
2023-03-05T16:03:18.467Z,11.18
2023-03-05T16:05:47.719Z,11.13
2023-03-05T16:08:16.885Z,11.90
2023-03-05T16:10:45.675Z,11.80
2023-03-05T16:13:19.257Z,12.35
2023-03-05T16:15:53.238Z,12.68
2023-03-05T16:18:25.113Z,13.38
2023-03-05T16:20:54.694Z,13.05
2023-03-05T16:23:23.721Z,11.38
2023-03-05T16:25:52.602Z,14.02
2023-03-05T16:28:21.696Z,13.60
2023-03-05T16:30:54.806Z,13.18
2023-03-05T16:33:26.073Z,13.30
2023-03-05T16:36:20.823Z,15.75
2023-03-05T16:38:50.607Z,14.68
2023-03-05T16:41:22.536Z,16.30
2023-03-05T16:43:56.554Z,16.23
2023-03-05T16:46:34.619Z,17.10
2023-03-05T16:49:05.917Z,15.80
2023-03-05T16:51:35.229Z,16.33
2023-03-05T16:54:05.407Z,15.52
2023-03-05T16:56:34.595Z,15.23
2023-03-05T16:59:04.370Z,13.90
2023-03-05T17:01:33.359Z,13.38
2023-03-05T17:04:03.018Z,10.97
2023-03-05T17:06:34.980Z,14.68
2023-03-05T17:09:05.096Z,14.00
2023-03-05T17:11:34.453Z,15.23
2023-03-05T17:14:04.501Z,18.83
2023-03-05T17:16:33.601Z,18.15
2023-03-05T17:19:02.807Z,17.73
2023-03-05T17:21:33.426Z,18.33
2023-03-05T17:24:02.923Z,20.20
2023-03-05T17:26:32.845Z,15.77
2023-03-05T17:29:01.914Z,20.10
2023-03-05T17:31:30.831Z,21.52
2023-03-05T17:34:00.266Z,20.33
2023-03-05T17:36:29.431Z,20.63
2023-03-05T17:39:00.253Z,22.63
2023-03-05T17:41:29.441Z,24.45
2023-03-05T17:43:58.671Z,24.08
2023-03-05T17:46:27.722Z,24.67
2023-03-05T17:48:57.057Z,24.98
2023-03-05T17:51:26.161Z,18.93
2023-03-05T17:53:56.576Z,24.35
2023-03-05T17:56:27.185Z,22.95
2023-03-05T17:58:56.182Z,24.67
2023-03-05T18:01:26.787Z,19.43
2023-03-05T18:03:56.165Z,24.67
2023-03-05T18:06:27.089Z,26.23
2023-03-05T18:08:56.344Z,26.67
2023-03-05T18:11:27.602Z,25.00
2023-03-05T18:13:56.751Z,26.98
2023-03-05T18:16:25.989Z,25.52
2023-03-05T18:18:55.274Z,19.15
2023-03-05T18:21:28.152Z,20.70
2023-03-05T18:23:57.461Z,26.83
2023-03-05T18:26:28.326Z,25.92
2023-03-05T18:28:57.884Z,23.98
2023-03-05T18:31:27.151Z,17.45
2023-03-05T18:33:56.371Z,19.00
2023-03-05T18:36:26.538Z,25.15
2023-03-05T18:38:55.791Z,26.00
2023-03-05T18:41:28.384Z,23.50
2023-03-05T18:43:57.193Z,22.90
2023-03-05T18:46:26.541Z,25.98
2023-03-05T18:48:55.806Z,27.20
2023-03-05T18:51:25.043Z,20.13
2023-03-05T18:53:55.198Z,24.83
2023-03-05T18:58:54.124Z,27.27
2023-03-05T19:01:23.381Z,29.13
2023-03-05T19:03:52.726Z,22.40
2023-03-05T19:06:21.880Z,22.33
2023-03-05T19:08:57.228Z,30.05
2023-03-05T19:11:26.922Z,27.15
2023-03-05T19:13:59.691Z,25.88
2023-03-05T19:16:33.912Z,30.00
2023-03-05T19:19:13.468Z,29.90
2023-03-05T19:21:43.054Z,28.40
2023-03-05T19:24:12.726Z,21.83
2023-03-05T19:26:42.072Z,27.60
2023-03-05T19:29:13.303Z,29.98
2023-03-05T19:31:42.468Z,31.23
2023-03-05T19:34:11.728Z,29.60
2023-03-05T19:36:40.967Z,28.07
2023-03-05T19:39:10.363Z,27.50
2023-03-05T19:41:39.589Z,30.17
2023-03-05T19:44:08.724Z,28.13
2023-03-05T19:46:39.889Z,30.95
2023-03-05T19:49:09.748Z,28.95
2023-03-05T19:51:45.683Z,29.35
2023-03-05T19:54:17.100Z,28.30
2023-03-05T19:56:47.951Z,30.63
2023-03-05T19:59:21.166Z,28.00
2023-03-05T20:01:51.552Z,30.77
2023-03-05T20:04:23.322Z,29.55
2023-03-05T20:06:52.849Z,30.52
2023-03-05T20:09:22.029Z,30.13
2023-03-05T20:11:51.924Z,30.83
2023-03-05T20:14:21.347Z,28.92
2023-03-05T20:16:51.811Z,26.95
2023-03-05T20:19:22.035Z,29.58
2023-03-05T20:21:51.134Z,29.80
2023-03-05T20:24:20.949Z,30.58
2023-03-05T20:26:50.227Z,27.88
2023-03-05T20:29:19.352Z,28.13
2023-03-05T20:31:50.099Z,26.73
2023-03-05T20:34:21.983Z,28.45
2023-03-05T20:36:51.261Z,25.52
2023-03-05T20:39:20.451Z,21.53
2023-03-05T20:41:51.317Z,25.02
2023-03-05T20:44:20.515Z,24.80
2023-03-05T20:46:59.732Z,27.05
2023-03-05T20:49:30.506Z,24.55
2023-03-05T20:52:00.206Z,25.48
2023-03-05T20:54:29.857Z,22.63
2023-03-05T20:59:28.833Z,25.30
2023-03-05T21:01:57.757Z,24.45
2023-03-05T21:04:26.981Z,19.95
2023-03-05T21:06:57.940Z,18.73
2023-03-05T21:09:29.085Z,24.88
2023-03-05T21:11:58.223Z,23.92
2023-03-05T21:14:27.436Z,25.17
2023-03-05T21:16:56.278Z,26.83
2023-03-05T21:19:25.362Z,19.67
2023-03-05T21:21:54.736Z,19.10
2023-03-05T21:24:32.663Z,19.00
2023-03-05T21:27:02.061Z,24.17
2023-03-05T21:29:31.256Z,25.65
2023-03-05T21:34:30.104Z,28.20
2023-03-05T21:36:59.201Z,25.33
2023-03-05T21:39:29.879Z,24.00
2023-03-05T21:41:59.694Z,27.52
2023-03-05T21:44:28.994Z,25.92
2023-03-05T21:46:57.992Z,28.08
2023-03-05T21:49:27.164Z,28.73
2023-03-05T21:52:09.125Z,23.27
2023-03-05T21:54:40.717Z,26.40
2023-03-05T21:57:11.700Z,28.65
2023-03-05T21:59:42.974Z,30.13
2023-03-05T22:02:13.652Z,28.55
2023-03-05T22:04:43.118Z,30.85
2023-03-05T22:07:12.326Z,29.73
2023-03-05T22:09:43.001Z,31.60
2023-03-05T22:12:19.424Z,28.40
2023-03-05T22:14:48.623Z,29.67
2023-03-05T22:17:17.663Z,29.88
2023-03-05T22:19:48.183Z,30.17
2023-03-05T22:22:20.785Z,30.00
2023-03-05T22:24:56.549Z,30.65
2023-03-05T22:27:33.353Z,33.40
2023-03-05T22:30:04.237Z,32.60
2023-03-05T22:32:35.197Z,25.00
2023-03-05T22:35:06.168Z,34.50
2023-03-05T22:37:34.900Z,31.35
2023-03-05T22:40:06.337Z,29.88
2023-03-05T22:42:35.477Z,32.67
2023-03-05T22:45:04.836Z,23.30
2023-03-05T22:47:34.132Z,25.92
2023-03-05T22:50:03.471Z,33.00
2023-03-05T22:52:32.205Z,31.42
2023-03-05T22:55:03.146Z,30.83
2023-03-05T22:57:34.566Z,31.27
2023-03-05T23:00:06.195Z,31.58
2023-03-05T23:02:36.413Z,30.45
2023-03-05T23:05:07.426Z,30.00
2023-03-05T23:07:38.028Z,30.73
2023-03-05T23:10:09.513Z,31.95
2023-03-05T23:12:44.086Z,32.33
2023-03-05T23:15:15.833Z,32.20
2023-03-05T23:17:45.008Z,33.55
2023-03-05T23:20:16.992Z,34.63
2023-03-05T23:22:46.454Z,35.15
2023-03-05T23:25:16.075Z,35.42
2023-03-05T23:27:46.871Z,38.83
2023-03-05T23:30:19.705Z,36.38
2023-03-05T23:32:52.100Z,37.35
2023-03-05T23:35:23.075Z,38.97
2023-03-05T23:37:52.623Z,34.92
2023-03-05T23:40:23.867Z,37.13
2023-03-05T23:42:55.506Z,33.90
2023-03-05T23:45:25.569Z,34.95
2023-03-05T23:50:25.176Z,32.25
2023-03-05T23:52:55.357Z,32.08
2023-03-05T23:55:26.330Z,32.47
2023-03-05T23:57:57.076Z,32.58
